Time;durP1;ratioP1;P1;durP2;ratioP2;P2;SDS_P1;SDS_P2;PMS_P1;PMS_P2;Temp;Humidity;BMP_temperature;BMP_pressure;BME280_temperature;BME280_humidity;BME280_pressure;Samples;Min_cycle;Max_cycle;Signal;HPM_P1;HPM_P2
2023/06/04 00:02:25;;;;;;;0.40;0.40;;;;;;;26.52;30.48;100786.75;7398512;19;20023;-95
2023/06/04 00:04:51;;;;;;;0.50;0.50;;;;;;;26.36;30.54;100782.28;7401256;19;20015;-95
2023/06/04 00:07:17;;;;;;;1.10;0.70;;;;;;;26.29;30.62;100783.78;7396799;19;20099;-92
2023/06/04 00:09:46;;;;;;;0.73;0.70;;;;;;;26.35;30.12;100780.78;7397133;19;20050;-93
2023/06/04 00:12:13;;;;;;;0.20;0.20;;;;;;;26.33;30.55;100781.31;7396452;19;20037;-94
2023/06/04 00:14:39;;;;;;;0.40;0.40;;;;;;;26.81;30.02;100788.22;7397253;19;20085;-93
2023/06/04 00:17:05;;;;;;;0.60;0.52;;;;;;;26.20;30.48;100777.84;7402448;19;20091;-94
2023/06/04 00:19:33;;;;;;;2.15;0.90;;;;;;;26.65;30.25;100786.63;7397734;19;20018;-93
2023/06/04 00:21:59;;;;;;;3.33;1.02;;;;;;;26.92;29.55;100782.16;7398740;19;20014;-95
2023/06/04 00:24:25;;;;;;;3.70;0.80;;;;;;;27.23;29.24;100777.28;7400020;19;20018;-93
2023/06/04 00:26:52;;;;;;;1.95;0.50;;;;;;;27.34;29.42;100774.03;7395963;19;20101;-95
2023/06/04 00:29:18;;;;;;;6.95;0.95;;;;;;;27.29;29.34;100780.69;7398625;19;20570;-94
2023/06/04 00:31:44;;;;;;;0.73;0.73;;;;;;;27.28;29.57;100778.41;7397976;19;20007;-95
2023/06/04 00:34:10;;;;;;;1.65;1.02;;;;;;;27.24;29.91;100778.03;7397494;19;20026;-93
2023/06/04 00:36:37;;;;;;;1.58;0.82;;;;;;;26.83;29.75;100768.41;7397635;19;20707;-95
2023/06/04 00:39:03;;;;;;;2.15;1.98;;;;;;;26.20;30.59;100775.75;7399626;19;20102;-94
2023/06/04 00:41:30;;;;;;;0.50;0.50;;;;;;;26.04;30.49;100773.34;7396341;19;20021;-94
2023/06/04 00:43:56;;;;;;;0.55;0.55;;;;;;;25.94;30.44;100770.25;7396477;19;20017;-92
2023/06/04 00:46:25;;;;;;;4.30;0.75;;;;;;;25.84;30.80;100768.44;7395987;19;20011;-90
2023/06/04 00:48:52;;;;;;;1.15;0.40;;;;;;;25.77;31.23;100766.31;7394994;19;20018;-92
2023/06/04 00:51:20;;;;;;;0.47;0.47;;;;;;;25.78;31.02;100768.59;7395522;19;20034;-92
2023/06/04 00:53:46;;;;;;;0.40;0.40;;;;;;;25.72;30.99;100764.38;7395548;19;20011;-93
2023/06/04 00:56:13;;;;;;;2.05;1.13;;;;;;;25.64;31.41;100775.75;7394017;19;20014;-93
2023/06/04 00:58:39;;;;;;;0.82;0.80;;;;;;;25.56;31.55;100763.47;7426636;19;20015;-93
2023/06/04 01:01:50;;;;;;;0.88;0.73;;;;;;;25.69;31.28;100771.19;7427175;19;20014;-92
2023/06/04 01:04:32;;;;;;;0.90;0.85;;;;;;;25.71;31.59;100768.56;7418831;19;20048;-91
2023/06/04 01:07:02;;;;;;;0.68;0.68;;;;;;;25.65;31.30;100771.53;7394998;19;20354;-86
2023/06/04 01:09:30;;;;;;;3.10;0.40;;;;;;;25.67;31.37;100780.31;7394793;19;20006;-86
2023/06/04 01:12:01;;;;;;;0.80;0.63;;;;;;;25.77;31.37;100777.72;7392700;19;20090;-86
2023/06/04 01:14:29;;;;;;;0.57;0.57;;;;;;;25.74;31.37;100776.75;7396490;19;20523;-86
2023/06/04 01:17:09;;;;;;;1.02;0.90;;;;;;;25.82;31.78;100771.09;7395468;19;20030;-86
2023/06/04 01:19:47;;;;;;;0.70;0.68;;;;;;;25.85;31.19;100775.69;7394218;19;20018;-86
2023/06/04 01:22:42;;;;;;;0.20;0.20;;;;;;;25.91;31.54;100777.06;7392227;19;20018;-85
2023/06/04 01:25:38;;;;;;;0.52;0.50;;;;;;;26.17;31.43;100788.31;7395926;19;20017;-85
2023/06/04 01:28:07;;;;;;;1.83;0.95;;;;;;;26.08;31.25;100785.16;7391467;19;20014;-86
2023/06/04 01:30:42;;;;;;;8.50;1.00;;;;;;;26.30;30.94;100778.84;7392457;19;20050;-86
2023/06/04 01:33:13;;;;;;;2.83;1.20;;;;;;;26.30;30.91;100776.00;7392493;19;20461;-86
2023/06/04 01:35:40;;;;;;;2.25;1.20;;;;;;;26.31;30.97;100777.53;7391714;19;20052;-86
2023/06/04 01:38:07;;;;;;;1.92;0.68;;;;;;;26.33;31.08;100780.59;7389757;19;20018;-86
2023/06/04 01:40:33;;;;;;;0.73;0.40;;;;;;;26.43;30.93;100784.44;7391228;19;20058;-86
2023/06/04 01:43:00;;;;;;;0.57;0.57;;;;;;;26.37;30.87;100780.97;7390141;19;20018;-87
2023/06/04 01:45:27;;;;;;;0.60;0.60;;;;;;;26.41;30.80;100789.94;7396850;19;20014;-86
2023/06/04 01:47:54;;;;;;;0.70;0.70;;;;;;;26.44;30.68;100794.53;7391116;19;20614;-86
2023/06/04 01:50:21;;;;;;;1.23;0.60;;;;;;;26.34;31.39;100790.66;7391762;19;20018;-86
2023/06/04 01:52:47;;;;;;;0.52;0.52;;;;;;;26.29;31.10;100783.03;7389943;19;20022;-86
2023/06/04 01:55:17;;;;;;;0.25;0.25;;;;;;;26.27;31.29;100783.59;7393505;19;20033;-86
2023/06/04 01:57:44;;;;;;;1.02;0.80;;;;;;;26.28;31.08;100787.22;7391936;19;20010;-86
2023/06/04 02:00:12;;;;;;;0.50;0.50;;;;;;;26.14;31.35;100789.41;7389641;19;20777;-86
2023/06/04 02:02:45;;;;;;;0.57;0.57;;;;;;;26.04;30.71;100784.75;7391786;19;20015;-86
2023/06/04 02:05:12;;;;;;;0.57;0.28;;;;;;;25.96;31.01;100786.81;7395052;19;20043;-84
2023/06/04 02:07:40;;;;;;;0.20;0.20;;;;;;;25.86;31.05;100791.50;7391594;19;20032;-86
2023/06/04 02:10:11;;;;;;;0.52;0.52;;;;;;;25.73;31.26;100791.59;7393225;19;20412;-86
2023/06/04 02:12:39;;;;;;;0.50;0.40;;;;;;;25.64;30.96;100798.56;7391767;19;20015;-86
2023/06/04 02:15:07;;;;;;;1.58;0.90;;;;;;;25.49;31.23;100789.88;7393923;19;20107;-85
2023/06/04 02:17:37;;;;;;;0.50;0.50;;;;;;;25.53;31.26;100790.28;7396419;19;20105;-85
2023/06/04 02:20:06;;;;;;;0.82;0.70;;;;;;;25.42;31.51;100788.50;7390881;19;20270;-84
2023/06/04 02:22:32;;;;;;;0.55;0.55;;;;;;;25.42;31.15;100794.19;7390926;19;20398;-85
2023/06/04 02:25:00;;;;;;;0.30;0.30;;;;;;;25.23;31.72;100790.72;7393573;19;20026;-85
2023/06/04 02:27:26;;;;;;;0.70;0.70;;;;;;;25.28;31.93;100801.25;7392653;19;20022;-86
2023/06/04 02:29:52;;;;;;;0.70;0.70;;;;;;;25.56;31.61;100795.63;7391063;19;20078;-85
2023/06/04 02:32:18;;;;;;;2.65;0.40;;;;;;;25.46;31.65;100806.00;7387719;19;20346;-84
2023/06/04 02:34:45;;;;;;;0.77;0.77;;;;;;;25.64;31.38;100809.22;7393304;19;20007;-84
2023/06/04 02:37:11;;;;;;;1.33;1.08;;;;;;;25.74;31.51;100807.38;7393351;19;20014;-84
2023/06/04 02:39:37;;;;;;;3.50;0.63;;;;;;;25.74;31.48;100802.44;7397241;19;20373;-84
2023/06/04 02:42:03;;;;;;;2.65;1.77;;;;;;;25.35;31.86;100806.25;7398551;19;20031;-84
2023/06/04 02:44:30;;;;;;;1.02;0.63;;;;;;;24.77;32.98;100809.44;7399325;19;20026;-85
2023/06/04 02:46:57;;;;;;;1.60;1.45;;;;;;;24.78;33.00;100805.25;7398291;19;20010;-84
2023/06/04 02:49:23;;;;;;;1.27;1.13;;;;;;;24.70;32.73;100798.69;7398347;19;20593;-84
2023/06/04 02:51:49;;;;;;;10.75;1.15;;;;;;;24.62;32.76;100797.06;7395630;19;20035;-84
2023/06/04 02:54:16;;;;;;;1.67;1.33;;;;;;;24.57;33.18;100800.78;7401558;19;20082;-84
2023/06/04 02:56:43;;;;;;;1.25;1.15;;;;;;;24.54;33.22;100804.72;7394518;19;20038;-85
2023/06/04 02:59:11;;;;;;;1.05;0.63;;;;;;;24.47;33.47;100797.63;7396339;19;20046;-84
2023/06/04 03:01:37;;;;;;;0.88;0.82;;;;;;;25.19;32.56;100800.94;7395845;19;20025;-85
2023/06/04 03:04:04;;;;;;;0.88;0.88;;;;;;;25.16;32.44;100805.69;7397630;19;20022;-84
2023/06/04 03:06:33;;;;;;;1.35;0.88;;;;;;;25.23;32.37;100799.28;7394200;19;20010;-85
2023/06/04 03:08:59;;;;;;;2.42;0.90;;;;;;;25.27;32.18;100796.88;7397477;19;20049;-84
2023/06/04 03:11:27;;;;;;;1.30;1.13;;;;;;;25.36;32.10;100793.50;7394983;19;20019;-85
2023/06/04 03:13:54;;;;;;;2.63;1.08;;;;;;;25.37;31.92;100792.22;7401539;19;20361;-83
2023/06/04 03:16:20;;;;;;;3.03;1.20;;;;;;;25.44;32.27;100797.25;7395517;19;20086;-84
2023/06/04 03:18:47;;;;;;;1.20;0.70;;;;;;;25.67;31.99;100797.44;7396700;19;20039;-85
2023/06/04 03:21:13;;;;;;;1.00;0.85;;;;;;;25.66;32.08;100792.28;7396414;19;20039;-84
2023/06/04 03:23:40;;;;;;;1.13;0.68;;;;;;;25.63;31.75;100784.84;7396595;19;20018;-84
2023/06/04 03:26:06;;;;;;;4.65;1.27;;;;;;;25.47;32.05;100784.72;7394583;19;20014;-84
2023/06/04 03:28:33;;;;;;;8.13;1.15;;;;;;;25.06;32.51;100790.38;7396851;19;20011;-84
2023/06/04 03:31:02;;;;;;;1.08;1.02;;;;;;;25.02;32.69;100787.09;7396282;19;20370;-85
2023/06/04 03:33:29;;;;;;;1.85;1.00;;;;;;;23.97;33.66;100784.38;7395184;19;20015;-84
2023/06/04 03:35:58;;;;;;;0.75;0.75;;;;;;;24.79;32.83;100783.25;7393865;19;20420;-84
2023/06/04 03:38:28;;;;;;;0.75;0.75;;;;;;;24.85;32.73;100775.31;7395264;19;20027;-84
2023/06/04 03:40:54;;;;;;;1.45;1.13;;;;;;;24.81;32.49;100786.31;7395211;19;20010;-84
2023/06/04 03:43:21;;;;;;;7.47;1.15;;;;;;;24.76;32.56;100778.63;7394847;19;20017;-83
2023/06/04 03:45:50;;;;;;;5.03;1.67;;;;;;;24.90;32.47;100785.84;7395049;19;20505;-84
2023/06/04 03:48:16;;;;;;;0.70;0.70;;;;;;;25.02;32.60;100789.94;7394900;19;20015;-84
2023/06/04 03:50:45;;;;;;;3.83;1.40;;;;;;;25.05;32.00;100788.84;7395875;19;20018;-84
2023/06/04 03:53:12;;;;;;;3.40;1.58;;;;;;;25.06;32.28;100781.81;7393321;19;20346;-84
2023/06/04 03:55:39;;;;;;;4.50;1.50;;;;;;;25.02;32.40;100777.78;7393069;19;20019;-84
2023/06/04 03:58:09;;;;;;;3.25;1.73;;;;;;;25.17;32.28;100778.69;7394109;19;20011;-84
2023/06/04 04:00:36;;;;;;;8.25;1.70;;;;;;;25.26;32.12;100778.22;7393944;19;20014;-84
2023/06/04 04:03:03;;;;;;;2.10;1.48;;;;;;;25.11;32.41;100785.84;7393916;19;20014;-85
2023/06/04 04:05:31;;;;;;;4.97;1.55;;;;;;;24.96;32.40;100789.31;7397900;19;20074;-84
2023/06/04 04:07:57;;;;;;;5.43;1.90;;;;;;;24.91;32.52;100789.44;7394303;19;20088;-84
2023/06/04 04:10:27;;;;;;;2.30;1.30;;;;;;;24.88;32.39;100791.34;7393981;19;20041;-85
2023/06/04 04:12:54;;;;;;;3.75;2.60;;;;;;;24.87;32.57;100789.78;7396021;19;20023;-84
2023/06/04 04:15:21;;;;;;;4.18;1.67;;;;;;;24.97;32.18;100793.69;7396837;19;20085;-84
2023/06/04 04:17:48;;;;;;;5.25;1.25;;;;;;;25.13;32.25;100797.47;7398796;19;20351;-84
2023/06/04 04:20:16;;;;;;;14.13;1.75;;;;;;;24.97;32.80;100799.38;7393514;19;20600;-84
2023/06/04 04:22:47;;;;;;;1.70;1.05;;;;;;;25.07;32.75;100796.84;7393493;19;20019;-84
2023/06/04 04:25:15;;;;;;;7.78;2.20;;;;;;;25.16;32.64;100805.69;7396105;19;20010;-84
2023/06/04 04:27:41;;;;;;;3.03;0.85;;;;;;;25.06;33.06;100809.59;7393332;19;20132;-84
2023/06/04 04:30:12;;;;;;;3.05;0.82;;;;;;;25.01;32.99;100804.75;7393248;19;20029;-84
2023/06/04 04:32:48;;;;;;;1.08;0.98;;;;;;;25.04;32.81;100803.63;7391710;19;20018;-84
2023/06/04 04:35:18;;;;;;;3.28;1.05;;;;;;;25.05;32.86;100803.09;7396630;19;20031;-83
2023/06/04 04:37:45;;;;;;;0.50;0.50;;;;;;;24.78;32.74;100799.56;7392162;19;20038;-84
2023/06/04 04:40:14;;;;;;;5.68;0.70;;;;;;;24.75;33.25;100802.75;7392497;19;20030;-84
2023/06/04 04:42:42;;;;;;;4.53;1.25;;;;;;;24.87;32.96;100798.34;7392334;19;20440;-84
2023/06/04 04:45:11;;;;;;;8.13;1.67;;;;;;;24.93;33.12;100804.66;7394718;19;20489;-84
2023/06/04 04:47:37;;;;;;;3.40;1.70;;;;;;;25.27;32.96;100796.88;7396425;19;20514;-85
2023/06/04 04:50:05;;;;;;;3.15;1.58;;;;;;;25.12;33.19;100804.50;7392653;19;20365;-84
2023/06/04 04:52:31;;;;;;;3.40;1.42;;;;;;;25.16;33.26;100797.16;7391318;19;20044;-84
2023/06/04 04:54:57;;;;;;;1.95;1.60;;;;;;;25.22;33.40;100803.47;7396058;19;20029;-84
2023/06/04 04:57:26;;;;;;;0.70;0.47;;;;;;;25.35;33.59;100806.25;7392514;19;20015;-84
2023/06/04 04:59:55;;;;;;;1.13;0.65;;;;;;;25.40;33.59;100802.47;7390804;19;20489;-84
2023/06/04 05:02:22;;;;;;;5.78;1.27;;;;;;;25.26;33.65;100806.75;7392534;19;20018;-85
2023/06/04 05:04:48;;;;;;;2.72;1.80;;;;;;;25.23;33.92;100796.44;7395300;19;20006;-85
2023/06/04 05:07:16;;;;;;;1.10;1.10;;;;;;;25.39;34.00;100792.41;7393336;19;20094;-85
2023/06/04 05:09:42;;;;;;;2.20;1.15;;;;;;;25.72;33.53;100804.31;7392493;19;20045;-85
2023/06/04 05:12:09;;;;;;;3.80;1.50;;;;;;;25.75;33.65;100801.09;7393499;19;20014;-85
2023/06/04 05:14:37;;;;;;;1.83;1.27;;;;;;;25.80;33.58;100794.50;7391957;19;20539;-85
2023/06/04 05:17:06;;;;;;;2.17;1.50;;;;;;;25.83;33.68;100786.91;7395724;19;20018;-85
2023/06/04 05:19:34;;;;;;;4.63;1.98;;;;;;;26.02;33.85;100798.81;7392519;19;20016;-85
2023/06/04 05:22:01;;;;;;;3.00;1.23;;;;;;;26.33;33.17;100795.63;7393165;19;20015;-86
2023/06/04 05:24:28;;;;;;;1.63;0.75;;;;;;;26.18;33.83;100789.06;7392351;19;20398;-87
2023/06/04 05:26:57;;;;;;;1.95;1.65;;;;;;;26.08;33.77;100793.72;7392220;19;20023;-86
2023/06/04 05:29:24;;;;;;;1.85;0.65;;;;;;;25.03;35.00;100791.50;7391805;19;20014;-85
2023/06/04 05:31:51;;;;;;;1.05;0.73;;;;;;;22.54;38.32;100810.91;7391311;19;20019;-86
2023/06/04 05:34:21;;;;;;;7.40;2.10;;;;;;;24.72;36.20;100800.97;7392024;19;20477;-86
2023/06/04 05:36:49;;;;;;;1.45;0.93;;;;;;;25.54;35.67;100801.13;7390496;19;20081;-86
2023/06/04 05:39:18;;;;;;;1.85;0.70;;;;;;;27.29;33.44;100800.72;7393321;19;20039;-85
2023/06/04 05:41:57;;;;;;;0.65;0.65;;;;;;;27.52;33.14;100801.56;7391265;19;20010;-85
2023/06/04 05:44:23;;;;;;;1.38;1.10;;;;;;;25.69;34.96;100799.72;7391705;19;20021;-85
2023/06/04 05:46:51;;;;;;;0.65;0.65;;;;;;;27.01;33.80;100801.63;7392769;19;20040;-87
2023/06/04 05:49:19;;;;;;;1.75;1.17;;;;;;;28.19;32.75;100797.13;7394936;19;20461;-86
2023/06/04 05:51:45;;;;;;;0.98;0.98;;;;;;;28.13;32.33;100802.28;7392727;19;20557;-88
2023/06/04 05:54:12;;;;;;;3.22;1.42;;;;;;;27.68;33.50;100799.44;7394285;19;20470;-84
2023/06/04 05:56:41;;;;;;;2.50;1.45;;;;;;;25.60;35.91;100803.09;7392663;19;20011;-85
2023/06/04 05:59:08;;;;;;;2.42;1.60;;;;;;;26.03;35.98;100797.53;7394146;19;20022;-85
2023/06/04 06:01:34;;;;;;;1.48;1.38;;;;;;;26.30;35.43;100802.47;7393846;19;20022;-86
2023/06/04 06:04:01;;;;;;;4.63;1.15;;;;;;;26.27;35.78;100805.66;7397085;19;20019;-85
2023/06/04 06:06:29;;;;;;;4.70;1.58;;;;;;;26.45;35.86;100801.00;7388979;19;20021;-85
2023/06/04 06:08:55;;;;;;;1.42;0.55;;;;;;;26.44;35.54;100808.84;7391194;19;20011;-85
2023/06/04 06:11:21;;;;;;;0.30;0.20;;;;;;;26.50;35.72;100809.44;7389063;19;20018;-85
2023/06/04 06:13:48;;;;;;;1.30;1.17;;;;;;;26.63;35.64;100815.00;7404012;19;20022;-86
2023/06/04 06:16:16;;;;;;;4.70;1.30;;;;;;;26.74;35.87;100811.84;7397681;19;20015;-85
2023/06/04 06:18:44;;;;;;;0.60;0.60;;;;;;;26.69;35.70;100807.03;7398735;19;20015;-85
2023/06/04 06:21:10;;;;;;;1.65;1.02;;;;;;;26.02;36.98;100815.97;7399752;19;20017;-85
2023/06/04 06:23:37;;;;;;;9.88;0.63;;;;;;;25.72;37.40;100812.88;7398939;19;20428;-85
2023/06/04 06:26:07;;;;;;;0.88;0.68;;;;;;;26.58;35.98;100809.44;7401369;19;20081;-86
2023/06/04 06:28:37;;;;;;;18.13;1.45;;;;;;;26.74;35.89;100811.09;7398054;19;20014;-85
2023/06/04 06:31:03;;;;;;;4.80;0.82;;;;;;;26.67;35.63;100818.25;7397375;19;20019;-84
2023/06/04 06:33:31;;;;;;;1.25;0.65;;;;;;;26.73;35.80;100810.31;7399258;19;20021;-85
2023/06/04 06:36:00;;;;;;;8.85;1.15;;;;;;;26.37;36.36;100806.69;7399748;19;20035;-85
2023/06/04 06:38:27;;;;;;;0.35;0.35;;;;;;;26.13;36.55;100809.97;7405932;19;20039;-85
2023/06/04 06:40:53;;;;;;;5.10;0.77;;;;;;;27.00;35.92;100808.69;7399044;19;20446;-85
2023/06/04 06:43:19;;;;;;;4.35;0.85;;;;;;;27.30;35.43;100810.09;7399158;19;20100;-85
2023/06/04 06:45:45;;;;;;;0.95;0.82;;;;;;;27.51;35.27;100814.34;7397816;19;20025;-85
2023/06/04 06:48:12;;;;;;;0.93;0.63;;;;;;;27.66;35.00;100813.56;7398475;19;20035;-85
2023/06/04 06:50:38;;;;;;;0.45;0.45;;;;;;;27.74;35.25;100820.06;7402469;19;20006;-85
2023/06/04 06:53:04;;;;;;;0.45;0.45;;;;;;;27.87;34.94;100811.28;7399872;19;20011;-85
2023/06/04 06:55:30;;;;;;;1.00;0.93;;;;;;;26.88;35.71;100816.06;7402696;19;20018;-85
2023/06/04 06:57:56;;;;;;;0.85;0.77;;;;;;;27.33;35.64;100809.69;7399487;19;20033;-86
2023/06/04 07:00:22;;;;;;;5.72;0.98;;;;;;;27.38;35.57;100816.59;7399930;19;20034;-85
2023/06/04 07:02:48;;;;;;;1.15;0.60;;;;;;;27.38;35.70;100810.88;7402538;19;20748;-85
2023/06/04 07:05:16;;;;;;;3.85;1.08;;;;;;;27.40;35.47;100813.94;7402534;19;20374;-85
2023/06/04 07:07:43;;;;;;;0.98;0.60;;;;;;;28.43;34.70;100813.69;7405691;19;20029;-86
2023/06/04 07:10:10;;;;;;;1.40;0.45;;;;;;;30.12;32.88;100810.72;7403441;19;20042;-86
2023/06/04 07:12:36;;;;;;;2.65;1.17;;;;;;;30.73;31.49;100820.19;7398464;19;20043;-86
2023/06/04 07:15:02;;;;;;;0.45;0.30;;;;;;;30.86;31.54;100816.22;7403541;19;20022;-85
2023/06/04 07:17:28;;;;;;;2.97;1.02;;;;;;;31.03;31.11;100812.53;7403723;19;20473;-89
2023/06/04 07:19:54;;;;;;;0.93;0.70;;;;;;;31.04;30.78;100814.81;7411511;19;20392;-88
2023/06/04 07:22:21;;;;;;;2.67;1.65;;;;;;;31.05;30.40;100815.56;7416957;19;20010;-88
2023/06/04 07:24:47;;;;;;;0.63;0.45;;;;;;;31.15;30.49;100813.50;7416166;19;20023;-89
2023/06/04 07:27:14;;;;;;;0.57;0.32;;;;;;;31.18;30.46;100818.84;7415278;19;20015;-88
2023/06/04 07:29:42;;;;;;;0.90;0.90;;;;;;;31.30;30.53;100814.03;7395695;19;20023;-87
2023/06/04 07:32:09;;;;;;;0.43;0.43;;;;;;;31.54;30.47;100820.22;7394304;19;20312;-87
2023/06/04 07:34:36;;;;;;;0.63;0.63;;;;;;;31.54;30.34;100817.34;7406055;19;20035;-88
2023/06/04 07:37:03;;;;;;;1.23;0.55;;;;;;;31.16;31.25;100815.81;7415841;19;20020;-90
2023/06/04 07:39:29;;;;;;;0.20;0.20;;;;;;;31.75;30.92;100811.84;7411968;19;20122;-89
2023/06/04 07:41:55;;;;;;;2.63;1.00;;;;;;;31.93;30.79;100813.22;7409393;19;20011;-88
2023/06/04 07:44:21;;;;;;;0.80;0.75;;;;;;;32.12;30.35;100822.69;7403584;19;20025;-87
2023/06/04 07:46:48;;;;;;;3.03;0.93;;;;;;;31.92;30.27;100817.47;7402350;19;20022;-87
2023/06/04 07:49:15;;;;;;;0.32;0.30;;;;;;;32.08;29.99;100821.63;7395734;19;20342;-88
2023/06/04 07:51:41;;;;;;;1.15;0.57;;;;;;;31.76;30.90;100819.09;7399096;19;20021;-87
2023/06/04 07:54:07;;;;;;;0.95;0.57;;;;;;;31.86;30.27;100822.78;7401106;19;20081;-86
2023/06/04 07:56:33;;;;;;;0.50;0.50;;;;;;;29.66;32.64;100813.22;7396022;19;20021;-87
2023/06/04 07:58:59;;;;;;;0.30;0.25;;;;;;;28.32;33.68;100822.69;7395288;19;20014;-87
2023/06/04 08:01:26;;;;;;;0.65;0.55;;;;;;;31.31;31.06;100809.06;7395192;19;20349;-87
2023/06/04 08:03:52;;;;;;;0.75;0.40;;;;;;;31.84;30.76;100822.59;7396361;19;20074;-87
2023/06/04 08:06:18;;;;;;;1.00;0.77;;;;;;;32.12;31.19;100816.16;7395538;19;20007;-89
2023/06/04 08:08:45;;;;;;;1.27;0.43;;;;;;;32.23;30.84;100814.84;7398461;19;20043;-87
2023/06/04 08:11:12;;;;;;;0.35;0.35;;;;;;;32.00;30.70;100815.25;7396926;19;20029;-88
2023/06/04 08:13:39;;;;;;;1.30;0.20;;;;;;;32.22;30.39;100814.06;7401059;19;20014;-88
2023/06/04 08:16:05;;;;;;;1.98;0.38;;;;;;;32.14;30.30;100819.19;7395941;19;20033;-87
2023/06/04 08:18:31;;;;;;;0.57;0.45;;;;;;;31.90;30.23;100817.31;7394526;19;20025;-86
2023/06/04 08:20:57;;;;;;;0.75;0.22;;;;;;;32.06;30.53;100818.59;7396219;19;20361;-87
2023/06/04 08:23:23;;;;;;;0.43;0.35;;;;;;;32.34;29.99;100814.22;7395323;19;20018;-87
2023/06/04 08:25:50;;;;;;;0.55;0.20;;;;;;;31.41;30.81;100812.75;7394879;19;20023;-86
2023/06/04 08:28:16;;;;;;;3.80;0.93;;;;;;;31.35;30.60;100824.53;7393375;19;20420;-87
2023/06/04 08:30:42;;;;;;;0.60;0.43;;;;;;;31.60;30.83;100826.50;7396008;19;20096;-87
2023/06/04 08:33:10;;;;;;;0.20;0.20;;;;;;;32.45;30.28;100823.03;7393939;19;20354;-88
2023/06/04 08:35:36;;;;;;;1.50;0.47;;;;;;;33.45;29.02;100812.41;7392160;19;20014;-87
2023/06/04 08:38:03;;;;;;;0.65;0.40;;;;;;;32.71;29.96;100825.03;7395752;19;20014;-88
2023/06/04 08:40:29;;;;;;;1.35;0.28;;;;;;;32.71;29.82;100816.38;7396021;19;20010;-89
2023/06/04 08:42:58;;;;;;;1.90;0.93;;;;;;;32.75;29.43;100818.78;7395412;19;20015;-87
2023/06/04 08:45:25;;;;;;;1.95;0.38;;;;;;;33.14;30.30;100820.25;7395751;19;20086;-89
2023/06/04 08:47:52;;;;;;;0.95;0.10;;;;;;;34.76;27.71;100803.34;7395394;19;20027;-91
2023/06/04 08:50:22;;;;;;;0.90;0.30;;;;;;;34.99;27.38;100812.09;7396403;19;20037;-89
2023/06/04 08:52:52;;;;;;;1.20;0.30;;;;;;;35.06;27.60;100808.25;7392966;19;20341;-88
2023/06/04 08:55:18;;;;;;;0.47;0.30;;;;;;;35.07;27.40;100798.16;7395113;19;20019;-89
2023/06/04 08:57:46;;;;;;;2.17;0.40;;;;;;;35.46;27.74;100792.66;7394460;19;20106;-87
2023/06/04 09:00:13;;;;;;;4.47;0.85;;;;;;;35.78;27.41;100789.63;7394500;19;20466;-88
2023/06/04 09:02:40;;;;;;;5.63;0.88;;;;;;;35.82;27.01;100788.38;7395174;19;20018;-89
2023/06/04 09:05:10;;;;;;;0.52;0.52;;;;;;;36.15;26.77;100800.56;7395893;19;20022;-88
2023/06/04 09:07:38;;;;;;;0.20;0.13;;;;;;;36.23;27.04;100798.16;7395357;19;20444;-87
2023/06/04 09:10:08;;;;;;;0.32;0.17;;;;;;;36.46;26.78;100798.09;7395358;19;20095;-88
2023/06/04 09:12:37;;;;;;;0.38;0.20;;;;;;;36.57;26.37;100800.19;7394706;19;20038;-93
2023/06/04 09:15:03;;;;;;;0.80;0.30;;;;;;;36.77;26.76;100795.56;7393649;19;20033;-87
2023/06/04 09:17:29;;;;;;;2.58;0.65;;;;;;;36.92;26.63;100797.91;7398905;19;20023;-87
2023/06/04 09:19:55;;;;;;;1.55;0.25;;;;;;;36.92;26.25;100797.16;7396848;19;20019;-88
2023/06/04 09:22:32;;;;;;;1.88;0.15;;;;;;;36.96;26.71;100798.13;7396265;19;20021;-87
2023/06/04 09:25:06;;;;;;;1.88;0.25;;;;;;;36.90;26.45;100799.94;7392352;19;20018;-88
2023/06/04 09:27:39;;;;;;;2.38;0.40;;;;;;;36.80;26.24;100793.50;7393612;19;20014;-89
2023/06/04 09:30:09;;;;;;;1.52;0.17;;;;;;;36.76;26.55;100796.19;7394754;19;20014;-87
2023/06/04 09:32:35;;;;;;;0.20;0.13;;;;;;;36.77;26.36;100798.47;7392858;19;20014;-90
2023/06/04 09:35:16;;;;;;;0.10;0.10;;;;;;;36.87;25.84;100790.31;7394735;19;20026;-88
2023/06/04 09:37:51;;;;;;;1.00;0.22;;;;;;;36.76;25.59;100791.13;7395815;19;20014;-89
2023/06/04 09:40:18;;;;;;;1.15;0.10;;;;;;;36.87;26.14;100796.13;7393250;19;20021;-89
2023/06/04 09:42:55;;;;;;;0.82;0.25;;;;;;;37.11;25.98;100797.53;7396375;19;20033;-89
2023/06/04 09:45:32;;;;;;;0.40;0.20;;;;;;;37.21;25.99;100795.16;7393588;19;20011;-87
2023/06/04 09:47:59;;;;;;;2.55;0.47;;;;;;;37.41;25.86;100800.59;7394297;19;20374;-89
2023/06/04 09:50:27;;;;;;;0.85;0.70;;;;;;;37.41;25.02;100788.97;7394536;19;20026;-89
2023/06/04 09:52:54;;;;;;;0.82;0.47;;;;;;;37.52;25.76;100785.22;7391853;19;20018;-89
2023/06/04 09:55:22;;;;;;;0.73;0.30;;;;;;;37.49;24.80;100792.34;7394058;19;20010;-88
2023/06/04 09:57:52;;;;;;;5.10;0.40;;;;;;;37.47;24.81;100789.34;7392641;19;20472;-90
2023/06/04 10:00:22;;;;;;;0.20;0.10;;;;;;;37.55;24.90;100792.66;7404269;19;20018;-90
2023/06/04 10:02:50;;;;;;;7.22;0.40;;;;;;;37.60;24.95;100789.31;7392002;19;20030;-91
2023/06/04 10:05:19;;;;;;;0.57;0.20;;;;;;;37.57;25.42;100789.88;7392682;19;20331;-89
2023/06/04 10:07:46;;;;;;;1.95;0.30;;;;;;;37.74;25.19;100795.13;7395703;19;20018;-88
2023/06/04 10:10:18;;;;;;;1.15;0.65;;;;;;;37.87;24.93;100792.25;7391290;19;20010;-92
2023/06/04 10:12:48;;;;;;;0.90;0.30;;;;;;;37.95;24.69;100794.81;7393274;19;20022;-91
2023/06/04 10:15:17;;;;;;;1.17;0.35;;;;;;;37.95;24.99;100797.75;7392643;19;20015;-91
2023/06/04 10:17:44;;;;;;;5.40;0.38;;;;;;;36.85;25.62;100793.13;7397012;19;20419;-92
2023/06/04 10:20:11;;;;;;;0.57;0.57;;;;;;;36.60;25.98;100790.22;7396718;19;20022;-90
2023/06/04 10:22:37;;;;;;;1.65;0.77;;;;;;;35.92;26.89;100797.69;7392568;19;20082;-90
2023/06/04 10:25:04;;;;;;;0.40;0.10;;;;;;;36.43;26.05;100808.06;7393040;19;20019;-92
2023/06/04 10:27:31;;;;;;;0.63;0.15;;;;;;;36.34;26.65;100797.38;7392805;19;20022;-92
2023/06/04 10:29:58;;;;;;;3.85;0.85;;;;;;;36.23;26.65;100803.97;7392923;19;20014;-91
2023/06/04 10:32:30;;;;;;;0.10;0.00;;;;;;;36.47;26.54;100794.56;7394207;19;20054;-91
2023/06/04 10:34:57;;;;;;;0.63;0.20;;;;;;;35.44;27.54;100801.97;7392810;19;20330;-90
2023/06/04 10:37:29;;;;;;;3.42;0.88;;;;;;;35.31;27.01;100796.81;7393187;19;20046;-91
2023/06/04 10:39:57;;;;;;;3.50;0.52;;;;;;;34.71;27.61;100808.13;7394125;19;20018;-94
2023/06/04 10:42:24;;;;;;;1.08;0.22;;;;;;;34.51;27.17;100800.22;7394530;19;20502;-94
2023/06/04 10:44:55;;;;;;;0.82;0.32;;;;;;;34.37;28.15;100807.94;7398698;19;20030;-93
2023/06/04 10:47:33;;;;;;;2.30;0.38;;;;;;;34.71;28.14;100807.34;7398040;19;20090;-92
2023/06/04 10:50:13;;;;;;;0.40;0.25;;;;;;;33.03;28.01;100814.38;7394296;19;20018;-93
2023/06/04 10:52:54;;;;;;;2.70;0.65;;;;;;;33.96;28.55;100810.19;7390038;19;20018;-93
2023/06/04 10:55:20;;;;;;;1.10;0.65;;;;;;;33.89;28.86;100806.13;7396277;19;20039;-92
2023/06/04 10:57:57;;;;;;;7.03;0.55;;;;;;;34.48;28.29;100807.25;7394227;19;20046;-93
2023/06/04 11:00:37;;;;;;;2.20;0.20;;;;;;;34.42;28.10;100803.91;7399953;19;20019;-92
2023/06/04 11:03:06;;;;;;;0.20;0.20;;;;;;;34.87;27.93;100802.63;7398548;19;20018;-92
2023/06/04 11:05:38;;;;;;;3.38;0.38;;;;;;;34.94;27.40;100813.22;7409123;19;20014;-92
2023/06/04 11:08:05;;;;;;;0.10;0.10;;;;;;;35.20;27.07;100806.25;7420225;19;20015;-96
2023/06/04 11:10:36;;;;;;;4.85;1.17;;;;;;;35.06;27.26;100806.09;7429201;19;20018;-90
2023/06/04 11:13:03;;;;;;;0.30;0.10;;;;;;;34.87;27.58;100802.63;7431977;19;20006;-92
2023/06/04 11:15:39;;;;;;;3.80;0.30;;;;;;;34.82;28.12;100806.63;7435032;19;20018;-93
2023/06/04 11:18:05;;;;;;;1.70;0.20;;;;;;;35.14;27.74;100799.31;7404018;19;20014;-92
2023/06/04 11:20:31;;;;;;;1.05;0.15;;;;;;;35.11;27.53;100797.69;7402303;19;20022;-95
2023/06/04 11:22:59;;;;;;;0.88;0.32;;;;;;;35.15;27.53;100798.66;7400847;19;20014;-92
2023/06/04 11:25:26;;;;;;;0.63;0.30;;;;;;;35.43;26.93;100796.81;7402988;19;20018;-90
2023/06/04 11:27:53;;;;;;;0.17;0.08;;;;;;;35.31;27.10;100805.50;7399517;19;20002;-90
2023/06/04 11:30:20;;;;;;;0.22;0.13;;;;;;;34.75;27.60;100810.50;7396122;19;20042;-88